CST,Max TemperatureF,Mean TemperatureF,Min TemperatureF,Max Dew PointF,MeanDew PointF,Min DewpointF,Max Humidity, Mean Humidity, Min Humidity, Max Sea Level PressureIn, Mean Sea Level PressureIn, Min Sea Level PressureIn, Max VisibilityMiles, Mean VisibilityMiles, Min VisibilityMiles, Max Wind SpeedMPH, Mean Wind SpeedMPH, Max Gust SpeedMPH,PrecipitationIn, CloudCover, Events, WindDirDegrees
2013-11-1,51,43,35,37,34,28,87,71,54,29.92,29.67,29.48,10,10,7,25,13,31,0.01,5,,309
2013-11-2,53,42,30,36,30,25,86,66,41,30.08,30.02,29.92,10,10,10,15,10,20,0.00,1,,291
2013-11-3,59,46,33,34,29,27,81,54,33,30.00,29.81,29.70,10,10,10,36,15,46,0.00,0,,165
2013-11-4,50,42,35,37,31,27,76,63,46,30.13,29.88,29.70,10,10,8,21,14,24,0.02,1,,250
2013-11-5,37,32,28,28,25,21,87,74,52,30.24,30.14,30.07,10,6,0,17,7,21,0.03,6,,344
2013-11-6,35,24,14,25,20,7,86,72,56,30.17,30.12,30.08,10,10,7,18,10,22,0.03,3,,267
2013-11-7,37,29,21,25,22,16,86,70,56,30.28,30.20,30.15,10,10,10,24,14,30,0.00,0,,259
2013-11-8,46,37,28,37,28,19,81,67,56,30.15,29.80,29.56,10,10,10,25,13,31,0.00,3,,202
2013-11-9,46,37,28,36,29,21,76,63,46,30.29,30.00,29.70,10,10,10,29,19,34,0.00,4,,304
2013-11-10,41,32,24,28,25,19,81,73,57,30.33,30.22,30.07,10,10,10,25,9,31,0.00,4,,225
2013-11-11,30,20,8,25,8,3,80,63,50,30.75,30.49,30.17,10,10,4,29,21,37,0.00,2,,343
2013-11-12,32,19,6,14,7,1,79,59,40,30.77,30.63,30.33,10,10,10,25,9,31,0.00,0,,235
2013-11-13,55,40,26,36,25,12,70,54,44,30.31,30.00,29.86,10,10,10,31,21,39,0.00,0,,230
2013-11-14,57,45,33,36,32,27,81,64,41,29.87,29.82,29.78,10,10,10,22,10,29,0.00,1,,267
2013-11-15,57,44,30,39,32,25,86,64,44,29.80,29.69,29.50,10,10,10,23,11,29,0.00,1,,196
2013-11-16,50,44,39,46,39,32,93,82,70,29.49,29.32,29.20,10,6,1,20,11,25,0.00,4,,184
2013-11-17,48,42,35,36,32,25,87,72,54,29.92,29.57,29.32,10,10,7,28,15,33,0.00,5,,313
2013-11-18,41,34,26,25,21,19,74,62,49,30.20,30.11,29.93,10,10,10,22,12,26,0.00,3,,329
2013-11-19,55,40,26,32,26,19,80,54,38,30.15,29.89,29.73,10,10,10,31,16,38,0.00,0,,166
2013-11-20,51,40,30,32,28,23,80,55,44,30.04,29.82,29.73,10,10,8,24,16,34,0.00,1,,192
2013-11-21,28,22,15,21,11,5,80,66,58,30.58,30.35,30.05,10,9,3,29,22,39,0.00,5,,340
2013-11-22,37,22,6,10,4,0,73,54,23,30.68,30.56,30.45,10,10,10,24,13,30,0.00,1,,299
2013-11-23,15,8,1,1,-2,-6,78,64,45,30.87,30.76,30.63,10,10,10,21,12,25,0.00,0,,328
2013-11-24,39,24,8,19,11,0,73,53,39,30.62,30.20,29.90,10,10,10,32,17,45,0.00,0,,207
2013-11-25,39,32,26,25,21,18,80,59,45,30.13,30.02,29.89,10,10,9,31,21,39,0.00,4,,300
2013-11-26,30,19,8,18,6,1,73,55,40,30.39,30.30,30.14,10,10,10,29,19,37,0.00,2,,337
2013-11-27,28,16,3,9,4,-2,79,62,40,30.39,30.15,29.93,10,10,10,26,8,33,0.00,0,,186
2013-11-28,24,15,6,16,8,0,79,63,46,30.45,30.30,30.01,10,10,8,21,12,29,0.00,3,,326
2013-11-29,37,22,8,23,13,1,79,62,44,30.45,30.23,30.01,10,10,10,28,10,33,0.00,0,,174
2013-11-30,39,32,24,25,21,18,80,65,52,30.17,30.07,29.97,10,10,8,17,10,20,0.00,0,,314